Search for airport 
image banner adimage banner adimage banner ad
image banner ad

CL96 - Vaca Valley Hospital

Located in Vacaville, United States

ICAO - CL96, IATA -

Data provided by Airmate  

General information

Coordinates: N38°21'19" W121°57'4"
Elevation is 110 feet MSL.
Magnetic variation is 16° East
View others Airports in California

Operational data

Special qualification required
Current time UTC:
Current local time:
Weather at : KVCB - Nut Tree ( 3 km )
METAR: KVCB 221253Z AUTO 23006KT 10SM CLR 16/11 A2987 RMK AO2 SLP114 T01610111
View NOTAMs / SUP AIP / TFR affecting this airport [VIEW]
Communications frequencies: [VIEW]

Runways:

Airport contact information

Address: Vacaville United States

Satellite view of CL96